sensor_id;sensor_type;location;lat;lon;timestamp;P1;durP1;ratioP1;P2;durP2;ratioP2
13240;SDS011;6687;47.790;7.322;2022-12-07T06:12:00;1.00;;;1.00;;
13240;SDS011;6687;47.790;7.322;2022-12-07T06:14:46;0.73;;;0.70;;
13240;SDS011;6687;47.790;7.322;2022-12-07T06:17:13;0.85;;;0.50;;
13240;SDS011;6687;47.790;7.322;2022-12-07T06:19:40;1.23;;;0.80;;
13240;SDS011;6687;47.790;7.322;2022-12-07T06:22:08;1.45;;;1.15;;
13240;SDS011;6687;47.790;7.322;2022-12-07T06:24:36;0.55;;;0.55;;
13240;SDS011;6687;47.790;7.322;2022-12-07T06:27:05;0.68;;;0.68;;
13240;SDS011;6687;47.790;7.322;2022-12-07T06:29:32;0.70;;;0.65;;
13240;SDS011;6687;47.790;7.322;2022-12-07T06:31:59;0.85;;;0.85;;
13240;SDS011;6687;47.790;7.322;2022-12-07T06:34:26;0.77;;;0.77;;
13240;SDS011;6687;47.790;7.322;2022-12-07T06:36:53;1.85;;;0.77;;
13240;SDS011;6687;47.790;7.322;2022-12-07T06:39:21;0.90;;;0.73;;
13240;SDS011;6687;47.790;7.322;2022-12-07T06:41:49;0.43;;;0.43;;
13240;SDS011;6687;47.790;7.322;2022-12-07T06:44:18;0.47;;;0.47;;
13240;SDS011;6687;47.790;7.322;2022-12-07T06:46:45;3.78;;;2.63;;
13240;SDS011;6687;47.790;7.322;2022-12-07T06:49:12;2.75;;;2.05;;
13240;SDS011;6687;47.790;7.322;2022-12-07T06:51:38;2.42;;;1.63;;
13240;SDS011;6687;47.790;7.322;2022-12-07T06:54:06;1.67;;;1.58;;
13240;SDS011;6687;47.790;7.322;2022-12-07T06:56:33;5.25;;;2.72;;
13240;SDS011;6687;47.790;7.322;2022-12-07T06:59:00;1.95;;;1.75;;
13240;SDS011;6687;47.790;7.322;2022-12-07T07:01:28;1.63;;;1.52;;
13240;SDS011;6687;47.790;7.322;2022-12-07T07:03:55;0.82;;;0.82;;
13240;SDS011;6687;47.790;7.322;2022-12-07T07:06:22;0.82;;;0.80;;
13240;SDS011;6687;47.790;7.322;2022-12-07T07:08:49;1.58;;;1.17;;
13240;SDS011;6687;47.790;7.322;2022-12-07T07:11:16;2.13;;;1.17;;
13240;SDS011;6687;47.790;7.322;2022-12-07T07:13:42;1.15;;;1.02;;
13240;SDS011;6687;47.790;7.322;2022-12-07T07:16:10;1.05;;;1.00;;
13240;SDS011;6687;47.790;7.322;2022-12-07T07:18:38;0.65;;;0.65;;
13240;SDS011;6687;47.790;7.322;2022-12-07T07:21:05;1.17;;;1.05;;
13240;SDS011;6687;47.790;7.322;2022-12-07T07:23:31;1.38;;;1.30;;
13240;SDS011;6687;47.790;7.322;2022-12-07T07:25:58;1.25;;;1.15;;
13240;SDS011;6687;47.790;7.322;2022-12-07T07:28:25;0.65;;;0.63;;
13240;SDS011;6687;47.790;7.322;2022-12-07T07:30:52;0.90;;;0.68;;
13240;SDS011;6687;47.790;7.322;2022-12-07T07:33:18;1.15;;;1.15;;
13240;SDS011;6687;47.790;7.322;2022-12-07T07:35:47;1.17;;;1.02;;
13240;SDS011;6687;47.790;7.322;2022-12-07T07:38:13;0.75;;;0.75;;
13240;SDS011;6687;47.790;7.322;2022-12-07T07:40:40;1.15;;;1.08;;
13240;SDS011;6687;47.790;7.322;2022-12-07T07:43:07;1.50;;;1.35;;
13240;SDS011;6687;47.790;7.322;2022-12-07T07:45:34;0.73;;;0.73;;
13240;SDS011;6687;47.790;7.322;2022-12-07T07:48:00;1.45;;;1.35;;
13240;SDS011;6687;47.790;7.322;2022-12-07T07:50:27;1.27;;;0.60;;
13240;SDS011;6687;47.790;7.322;2022-12-07T07:52:55;0.77;;;0.77;;
13240;SDS011;6687;47.790;7.322;2022-12-07T07:55:23;1.65;;;1.33;;
13240;SDS011;6687;47.790;7.322;2022-12-07T07:57:49;0.75;;;0.63;;
13240;SDS011;6687;47.790;7.322;2022-12-07T08:00:16;0.70;;;0.57;;
13240;SDS011;6687;47.790;7.322;2022-12-07T08:02:44;1.10;;;1.00;;
13240;SDS011;6687;47.790;7.322;2022-12-07T08:05:11;0.88;;;0.88;;
13240;SDS011;6687;47.790;7.322;2022-12-07T08:07:38;1.20;;;0.95;;
13240;SDS011;6687;47.790;7.322;2022-12-07T08:10:07;0.40;;;0.40;;
13240;SDS011;6687;47.790;7.322;2022-12-07T08:12:36;3.10;;;1.60;;
13240;SDS011;6687;47.790;7.322;2022-12-07T08:15:25;4.07;;;2.08;;
13240;SDS011;6687;47.790;7.322;2022-12-07T08:17:52;4.63;;;2.75;;
13240;SDS011;6687;47.790;7.322;2022-12-07T08:20:19;2.65;;;2.45;;
13240;SDS011;6687;47.790;7.322;2022-12-07T08:22:45;2.75;;;2.55;;
13240;SDS011;6687;47.790;7.322;2022-12-07T08:25:14;4.18;;;2.70;;
13240;SDS011;6687;47.790;7.322;2022-12-07T08:27:40;3.90;;;2.95;;
13240;SDS011;6687;47.790;7.322;2022-12-07T08:30:07;3.40;;;3.10;;
13240;SDS011;6687;47.790;7.322;2022-12-07T08:32:35;3.10;;;2.65;;
13240;SDS011;6687;47.790;7.322;2022-12-07T08:35:01;3.60;;;2.05;;
13240;SDS011;6687;47.790;7.322;2022-12-07T08:37:28;0.90;;;0.90;;
13240;SDS011;6687;47.790;7.322;2022-12-07T08:39:55;1.08;;;1.08;;
13240;SDS011;6687;47.790;7.322;2022-12-07T08:42:23;1.48;;;1.30;;
13240;SDS011;6687;47.790;7.322;2022-12-07T08:44:54;1.17;;;1.08;;
13240;SDS011;6687;47.790;7.322;2022-12-07T08:47:21;2.13;;;1.58;;
13240;SDS011;6687;47.790;7.322;2022-12-07T08:49:49;1.02;;;1.02;;
13240;SDS011;6687;47.790;7.322;2022-12-07T08:52:17;0.30;;;0.30;;
13240;SDS011;6687;47.790;7.322;2022-12-07T08:54:44;0.95;;;0.77;;
13240;SDS011;6687;47.790;7.322;2022-12-07T08:57:11;0.75;;;0.70;;
13240;SDS011;6687;47.790;7.322;2022-12-07T08:59:39;0.85;;;0.80;;
13240;SDS011;6687;47.790;7.322;2022-12-07T09:02:06;1.05;;;1.05;;
13240;SDS011;6687;47.790;7.322;2022-12-07T09:04:33;0.85;;;0.85;;
13240;SDS011;6687;47.790;7.322;2022-12-07T09:07:00;1.05;;;0.88;;
13240;SDS011;6687;47.790;7.322;2022-12-07T09:09:27;0.52;;;0.52;;
13240;SDS011;6687;47.790;7.322;2022-12-07T09:11:53;0.75;;;0.70;;
13240;SDS011;6687;47.790;7.322;2022-12-07T09:14:20;1.95;;;0.95;;
13240;SDS011;6687;47.790;7.322;2022-12-07T09:16:50;0.73;;;0.73;;
13240;SDS011;6687;47.790;7.322;2022-12-07T09:19:17;1.48;;;1.38;;
13240;SDS011;6687;47.790;7.322;2022-12-07T09:21:43;1.10;;;1.10;;
13240;SDS011;6687;47.790;7.322;2022-12-07T09:24:11;0.45;;;0.38;;
13240;SDS011;6687;47.790;7.322;2022-12-07T09:26:38;1.30;;;0.60;;
13240;SDS011;6687;47.790;7.322;2022-12-07T09:29:05;0.60;;;0.60;;
13240;SDS011;6687;47.790;7.322;2022-12-07T09:31:32;4.95;;;0.95;;
13240;SDS011;6687;47.790;7.322;2022-12-07T09:34:00;0.75;;;0.60;;
13240;SDS011;6687;47.790;7.322;2022-12-07T09:36:27;0.47;;;0.47;;
13240;SDS011;6687;47.790;7.322;2022-12-07T09:38:55;0.88;;;0.63;;
13240;SDS011;6687;47.790;7.322;2022-12-07T09:41:22;0.68;;;0.60;;
13240;SDS011;6687;47.790;7.322;2022-12-07T09:43:51;1.23;;;0.85;;
13240;SDS011;6687;47.790;7.322;2022-12-07T09:46:19;0.45;;;0.45;;
13240;SDS011;6687;47.790;7.322;2022-12-07T09:48:47;0.63;;;0.63;;
13240;SDS011;6687;47.790;7.322;2022-12-07T09:51:19;0.68;;;0.68;;
13240;SDS011;6687;47.790;7.322;2022-12-07T09:53:47;1.33;;;1.25;;
13240;SDS011;6687;47.790;7.322;2022-12-07T09:56:15;0.55;;;0.55;;
13240;SDS011;6687;47.790;7.322;2022-12-07T09:58:44;2.88;;;1.15;;
13240;SDS011;6687;47.790;7.322;2022-12-07T10:01:13;1.08;;;1.00;;
13240;SDS011;6687;47.790;7.322;2022-12-07T10:03:42;0.47;;;0.45;;
13240;SDS011;6687;47.790;7.322;2022-12-07T10:06:15;1.02;;;0.93;;
13240;SDS011;6687;47.790;7.322;2022-12-07T10:08:43;0.52;;;0.52;;
13240;SDS011;6687;47.790;7.322;2022-12-07T10:11:10;0.38;;;0.38;;
13240;SDS011;6687;47.790;7.322;2022-12-07T10:13:40;0.95;;;0.80;;
13240;SDS011;6687;47.790;7.322;2022-12-07T10:16:25;0.57;;;0.57;;
13240;SDS011;6687;47.790;7.322;2022-12-07T10:19:21;0.77;;;0.68;;
13240;SDS011;6687;47.790;7.322;2022-12-07T10:24:37;0.68;;;0.68;;
13240;SDS011;6687;47.790;7.322;2022-12-07T10:27:11;0.98;;;0.98;;
13240;SDS011;6687;47.790;7.322;2022-12-07T10:29:46;0.75;;;0.75;;
13240;SDS011;6687;47.790;7.322;2022-12-07T10:32:26;1.13;;;1.02;;
13240;SDS011;6687;47.790;7.322;2022-12-07T10:35:15;0.40;;;0.40;;
13240;SDS011;6687;47.790;7.322;2022-12-07T10:37:46;1.80;;;0.77;;
13240;SDS011;6687;47.790;7.322;2022-12-07T10:43:05;1.35;;;1.25;;
13240;SDS011;6687;47.790;7.322;2022-12-07T10:45:45;1.35;;;1.20;;
13240;SDS011;6687;47.790;7.322;2022-12-07T10:48:37;1.20;;;1.02;;
13240;SDS011;6687;47.790;7.322;2022-12-07T10:51:12;0.60;;;0.60;;
13240;SDS011;6687;47.790;7.322;2022-12-07T10:53:52;1.42;;;1.33;;
13240;SDS011;6687;47.790;7.322;2022-12-07T10:59:36;0.93;;;0.93;;
13240;SDS011;6687;47.790;7.322;2022-12-07T11:02:22;0.40;;;0.40;;
13240;SDS011;6687;47.790;7.322;2022-12-07T11:05:01;0.60;;;0.60;;
13240;SDS011;6687;47.790;7.322;2022-12-07T11:07:36;2.10;;;2.00;;
13240;SDS011;6687;47.790;7.322;2022-12-07T11:10:11;1.27;;;1.17;;
13240;SDS011;6687;47.790;7.322;2022-12-07T11:12:53;1.58;;;1.48;;
13240;SDS011;6687;47.790;7.322;2022-12-07T11:15:31;0.75;;;0.75;;
13240;SDS011;6687;47.790;7.322;2022-12-07T11:18:10;0.60;;;0.60;;
13240;SDS011;6687;47.790;7.322;2022-12-07T11:20:43;0.20;;;0.20;;
13240;SDS011;6687;47.790;7.322;2022-12-07T11:23:18;1.85;;;1.50;;
13240;SDS011;6687;47.790;7.322;2022-12-07T11:25:54;0.93;;;0.93;;
13240;SDS011;6687;47.790;7.322;2022-12-07T11:28:35;2.15;;;1.77;;
13240;SDS011;6687;47.790;7.322;2022-12-07T11:31:27;0.40;;;0.40;;
13240;SDS011;6687;47.790;7.322;2022-12-07T11:34:00;0.90;;;0.90;;
13240;SDS011;6687;47.790;7.322;2022-12-07T11:36:36;0.80;;;0.52;;
13240;SDS011;6687;47.790;7.322;2022-12-07T11:39:10;1.10;;;1.10;;
13240;SDS011;6687;47.790;7.322;2022-12-07T11:41:42;0.60;;;0.60;;
13240;SDS011;6687;47.790;7.322;2022-12-07T11:44:18;0.30;;;0.28;;
13240;SDS011;6687;47.790;7.322;2022-12-07T11:46:53;0.88;;;0.65;;
13240;SDS011;6687;47.790;7.322;2022-12-07T11:49:27;0.98;;;0.77;;
13240;SDS011;6687;47.790;7.322;2022-12-07T11:52:06;0.30;;;0.30;;
13240;SDS011;6687;47.790;7.322;2022-12-07T11:54:43;0.75;;;0.75;;
13240;SDS011;6687;47.790;7.322;2022-12-07T11:57:16;0.90;;;0.65;;
13240;SDS011;6687;47.790;7.322;2022-12-07T11:59:52;0.52;;;0.52;;
13240;SDS011;6687;47.790;7.322;2022-12-07T12:02:26;1.55;;;1.45;;
13240;SDS011;6687;47.790;7.322;2022-12-07T12:05:01;1.80;;;1.65;;
13240;SDS011;6687;47.790;7.322;2022-12-07T12:07:38;0.80;;;0.80;;
13240;SDS011;6687;47.790;7.322;2022-12-07T12:10:13;0.68;;;0.50;;
13240;SDS011;6687;47.790;7.322;2022-12-07T12:16:03;0.82;;;0.70;;
13240;SDS011;6687;47.790;7.322;2022-12-07T12:18:41;2.75;;;0.80;;
13240;SDS011;6687;47.790;7.322;2022-12-07T12:21:26;0.63;;;0.60;;
13240;SDS011;6687;47.790;7.322;2022-12-07T12:23:55;0.88;;;0.57;;
13240;SDS011;6687;47.790;7.322;2022-12-07T12:26:26;0.75;;;0.75;;
13240;SDS011;6687;47.790;7.322;2022-12-07T12:28:56;0.98;;;0.52;;
13240;SDS011;6687;47.790;7.322;2022-12-07T12:31:37;0.47;;;0.47;;
13240;SDS011;6687;47.790;7.322;2022-12-07T12:37:18;0.70;;;0.70;;
13240;SDS011;6687;47.790;7.322;2022-12-07T12:55:16;0.20;;;0.20;;
13240;SDS011;6687;47.790;7.322;2022-12-07T12:57:46;0.03;;;0.03;;
13240;SDS011;6687;47.790;7.322;2022-12-07T13:00:34;0.28;;;0.28;;
13240;SDS011;6687;47.790;7.322;2022-12-07T13:03:02;0.20;;;0.20;;
13240;SDS011;6687;47.790;7.322;2022-12-07T13:05:30;0.77;;;0.50;;
13240;SDS011;6687;47.790;7.322;2022-12-07T13:07:58;0.75;;;0.32;;
13240;SDS011;6687;47.790;7.322;2022-12-07T13:10:31;0.47;;;0.47;;
13240;SDS011;6687;47.790;7.322;2022-12-07T13:13:08;0.90;;;0.40;;
13240;SDS011;6687;47.790;7.322;2022-12-07T13:22:42;0.38;;;0.38;;
13240;SDS011;6687;47.790;7.322;2022-12-07T13:25:12;0.95;;;0.47;;
13240;SDS011;6687;47.790;7.322;2022-12-07T13:27:48;0.10;;;0.10;;
13240;SDS011;6687;47.790;7.322;2022-12-07T13:30:22;0.25;;;0.25;;
13240;SDS011;6687;47.790;7.322;2022-12-07T13:32:53;0.20;;;0.20;;
13240;SDS011;6687;47.790;7.322;2022-12-07T13:35:28;0.47;;;0.47;;
13240;SDS011;6687;47.790;7.322;2022-12-07T13:38:02;3.47;;;1.42;;
13240;SDS011;6687;47.790;7.322;2022-12-07T13:40:32;0.88;;;0.88;;
13240;SDS011;6687;47.790;7.322;2022-12-07T13:42:59;0.30;;;0.30;;
13240;SDS011;6687;47.790;7.322;2022-12-07T13:45:28;0.55;;;0.32;;
13240;SDS011;6687;47.790;7.322;2022-12-07T13:48:15;0.20;;;0.20;;
13240;SDS011;6687;47.790;7.322;2022-12-07T13:50:52;0.45;;;0.30;;
13240;SDS011;6687;47.790;7.322;2022-12-07T13:53:21;0.98;;;0.93;;
13240;SDS011;6687;47.790;7.322;2022-12-07T13:55:49;0.50;;;0.50;;
13240;SDS011;6687;47.790;7.322;2022-12-07T13:58:16;0.32;;;0.32;;
13240;SDS011;6687;47.790;7.322;2022-12-07T14:00:43;0.20;;;0.20;;
13240;SDS011;6687;47.790;7.322;2022-12-07T14:06:19;0.40;;;0.40;;
13240;SDS011;6687;47.790;7.322;2022-12-07T14:09:07;1.20;;;1.13;;
13240;SDS011;6687;47.790;7.322;2022-12-07T14:11:35;0.68;;;0.68;;
13240;SDS011;6687;47.790;7.322;2022-12-07T14:14:02;0.45;;;0.45;;
13240;SDS011;6687;47.790;7.322;2022-12-07T14:16:31;0.73;;;0.73;;
13240;SDS011;6687;47.790;7.322;2022-12-07T14:19:01;0.57;;;0.57;;
13240;SDS011;6687;47.790;7.322;2022-12-07T14:21:30;3.85;;;1.30;;
13240;SDS011;6687;47.790;7.322;2022-12-07T14:24:04;0.43;;;0.43;;
13240;SDS011;6687;47.790;7.322;2022-12-07T14:26:37;0.32;;;0.32;;
13240;SDS011;6687;47.790;7.322;2022-12-07T14:29:18;0.22;;;0.22;;
13240;SDS011;6687;47.790;7.322;2022-12-07T14:31:46;0.63;;;0.30;;
13240;SDS011;6687;47.790;7.322;2022-12-07T14:34:13;0.52;;;0.52;;
13240;SDS011;6687;47.790;7.322;2022-12-07T14:36:40;0.47;;;0.40;;
13240;SDS011;6687;47.790;7.322;2022-12-07T14:39:07;0.40;;;0.40;;
13240;SDS011;6687;47.790;7.322;2022-12-07T14:41:35;0.40;;;0.40;;
13240;SDS011;6687;47.790;7.322;2022-12-07T14:44:17;0.20;;;0.20;;
13240;SDS011;6687;47.790;7.322;2022-12-07T14:46:45;0.82;;;0.50;;
13240;SDS011;6687;47.790;7.322;2022-12-07T14:49:12;1.52;;;0.73;;
13240;SDS011;6687;47.790;7.322;2022-12-07T14:51:39;0.40;;;0.40;;
13240;SDS011;6687;47.790;7.322;2022-12-07T14:54:11;0.15;;;0.15;;
13240;SDS011;6687;47.790;7.322;2022-12-07T14:56:43;0.63;;;0.52;;
13240;SDS011;6687;47.790;7.322;2022-12-07T14:59:11;0.20;;;0.20;;
13240;SDS011;6687;47.790;7.322;2022-12-07T15:01:38;0.90;;;0.65;;
13240;SDS011;6687;47.790;7.322;2022-12-07T15:04:05;0.80;;;0.68;;
13240;SDS011;6687;47.790;7.322;2022-12-07T15:06:32;0.95;;;0.65;;
13240;SDS011;6687;47.790;7.322;2022-12-07T15:08:59;0.63;;;0.50;;
13240;SDS011;6687;47.790;7.322;2022-12-07T15:11:26;1.00;;;0.77;;
13240;SDS011;6687;47.790;7.322;2022-12-07T15:13:54;0.98;;;0.88;;
13240;SDS011;6687;47.790;7.322;2022-12-07T15:16:38;0.70;;;0.60;;
13240;SDS011;6687;47.790;7.322;2022-12-07T15:19:07;0.38;;;0.38;;
13240;SDS011;6687;47.790;7.322;2022-12-07T15:21:37;0.98;;;0.52;;
13240;SDS011;6687;47.790;7.322;2022-12-07T15:24:04;1.42;;;1.00;;
13240;SDS011;6687;47.790;7.322;2022-12-07T15:26:32;0.93;;;0.45;;
13240;SDS011;6687;47.790;7.322;2022-12-07T15:29:00;0.77;;;0.77;;
13240;SDS011;6687;47.790;7.322;2022-12-07T15:31:27;0.68;;;0.68;;
13240;SDS011;6687;47.790;7.322;2022-12-07T15:33:53;0.45;;;0.40;;
13240;SDS011;6687;47.790;7.322;2022-12-07T15:36:21;0.38;;;0.38;;
13240;SDS011;6687;47.790;7.322;2022-12-07T15:38:49;1.17;;;0.75;;
13240;SDS011;6687;47.790;7.322;2022-12-07T15:41:16;0.63;;;0.63;;
13240;SDS011;6687;47.790;7.322;2022-12-07T15:43:43;0.85;;;0.85;;
13240;SDS011;6687;47.790;7.322;2022-12-07T15:46:33;2.15;;;1.45;;
13240;SDS011;6687;47.790;7.322;2022-12-07T15:49:02;1.52;;;1.42;;
13240;SDS011;6687;47.790;7.322;2022-12-07T15:51:29;0.85;;;0.85;;
13240;SDS011;6687;47.790;7.322;2022-12-07T15:53:57;1.15;;;1.00;;
13240;SDS011;6687;47.790;7.322;2022-12-07T15:56:24;2.22;;;0.60;;
13240;SDS011;6687;47.790;7.322;2022-12-07T15:58:51;0.90;;;0.90;;
13240;SDS011;6687;47.790;7.322;2022-12-07T16:01:18;0.82;;;0.80;;
13240;SDS011;6687;47.790;7.322;2022-12-07T16:03:47;0.65;;;0.50;;
13240;SDS011;6687;47.790;7.322;2022-12-07T16:06:15;0.70;;;0.50;;
13240;SDS011;6687;47.790;7.322;2022-12-07T16:08:42;1.02;;;0.93;;
13240;SDS011;6687;47.790;7.322;2022-12-07T16:11:09;1.08;;;1.05;;
13240;SDS011;6687;47.790;7.322;2022-12-07T16:13:36;0.93;;;0.93;;
13240;SDS011;6687;47.790;7.322;2022-12-07T16:16:04;1.58;;;1.23;;
13240;SDS011;6687;47.790;7.322;2022-12-07T16:18:32;1.35;;;1.20;;
13240;SDS011;6687;47.790;7.322;2022-12-07T16:21:01;1.42;;;1.33;;
13240;SDS011;6687;47.790;7.322;2022-12-07T16:23:28;0.82;;;0.77;;
13240;SDS011;6687;47.790;7.322;2022-12-07T16:25:55;0.90;;;0.90;;
13240;SDS011;6687;47.790;7.322;2022-12-07T16:28:30;1.17;;;0.93;;
13240;SDS011;6687;47.790;7.322;2022-12-07T16:30:59;0.77;;;0.77;;
13240;SDS011;6687;47.790;7.322;2022-12-07T16:33:27;0.98;;;0.98;;
13240;SDS011;6687;47.790;7.322;2022-12-07T16:35:54;1.85;;;1.23;;
13240;SDS011;6687;47.790;7.322;2022-12-07T16:38:22;0.70;;;0.63;;
13240;SDS011;6687;47.790;7.322;2022-12-07T16:40:49;0.68;;;0.68;;
13240;SDS011;6687;47.790;7.322;2022-12-07T16:43:16;1.52;;;1.42;;
13240;SDS011;6687;47.790;7.322;2022-12-07T16:45:42;0.63;;;0.63;;
13240;SDS011;6687;47.790;7.322;2022-12-07T16:48:09;1.23;;;1.13;;
13240;SDS011;6687;47.790;7.322;2022-12-07T16:50:38;3.03;;;1.40;;
13240;SDS011;6687;47.790;7.322;2022-12-07T16:53:06;0.65;;;0.65;;
13240;SDS011;6687;47.790;7.322;2022-12-07T16:55:36;1.77;;;1.50;;
13240;SDS011;6687;47.790;7.322;2022-12-07T16:58:03;0.90;;;0.90;;
13240;SDS011;6687;47.790;7.322;2022-12-07T17:00:30;1.65;;;1.17;;
13240;SDS011;6687;47.790;7.322;2022-12-07T17:02:56;5.55;;;2.97;;
13240;SDS011;6687;47.790;7.322;2022-12-07T17:05:23;3.60;;;1.95;;
13240;SDS011;6687;47.790;7.322;2022-12-07T17:07:52;1.55;;;1.20;;
13240;SDS011;6687;47.790;7.322;2022-12-07T17:10:18;1.55;;;1.15;;
13240;SDS011;6687;47.790;7.322;2022-12-07T17:12:47;1.70;;;1.15;;
13240;SDS011;6687;47.790;7.322;2022-12-07T17:15:14;2.35;;;0.88;;
13240;SDS011;6687;47.790;7.322;2022-12-07T17:17:42;1.33;;;0.85;;
13240;SDS011;6687;47.790;7.322;2022-12-07T17:20:10;0.77;;;0.77;;
13240;SDS011;6687;47.790;7.322;2022-12-07T17:22:37;1.58;;;0.98;;
13240;SDS011;6687;47.790;7.322;2022-12-07T17:25:05;0.70;;;0.70;;
13240;SDS011;6687;47.790;7.322;2022-12-07T17:27:32;0.52;;;0.52;;
13240;SDS011;6687;47.790;7.322;2022-12-07T17:30:00;1.20;;;1.10;;
13240;SDS011;6687;47.790;7.322;2022-12-07T17:32:27;1.95;;;1.75;;
13240;SDS011;6687;47.790;7.322;2022-12-07T17:34:53;1.40;;;1.25;;
13240;SDS011;6687;47.790;7.322;2022-12-07T17:37:20;1.45;;;1.35;;
13240;SDS011;6687;47.790;7.322;2022-12-07T17:39:47;1.83;;;1.00;;
13240;SDS011;6687;47.790;7.322;2022-12-07T17:42:14;1.05;;;1.00;;
13240;SDS011;6687;47.790;7.322;2022-12-07T17:45:00;1.10;;;0.80;;
13240;SDS011;6687;47.790;7.322;2022-12-07T17:47:27;1.20;;;0.88;;
13240;SDS011;6687;47.790;7.322;2022-12-07T17:49:54;1.58;;;1.48;;
13240;SDS011;6687;47.790;7.322;2022-12-07T17:52:21;1.00;;;0.75;;
13240;SDS011;6687;47.790;7.322;2022-12-07T17:55:06;1.20;;;1.10;;
13240;SDS011;6687;47.790;7.322;2022-12-07T17:57:33;1.50;;;1.40;;
13240;SDS011;6687;47.790;7.322;2022-12-07T18:00:01;1.48;;;1.30;;
13240;SDS011;6687;47.790;7.322;2022-12-07T18:02:29;1.15;;;1.10;;
13240;SDS011;6687;47.790;7.322;2022-12-07T18:04:55;1.80;;;1.63;;
13240;SDS011;6687;47.790;7.322;2022-12-07T18:07:22;1.95;;;1.67;;
13240;SDS011;6687;47.790;7.322;2022-12-07T18:09:49;1.42;;;1.33;;
13240;SDS011;6687;47.790;7.322;2022-12-07T18:12:16;2.38;;;1.48;;
13240;SDS011;6687;47.790;7.322;2022-12-07T18:14:42;2.55;;;2.00;;
13240;SDS011;6687;47.790;7.322;2022-12-07T18:17:11;1.55;;;1.30;;
13240;SDS011;6687;47.790;7.322;2022-12-07T18:19:37;2.38;;;1.80;;
13240;SDS011;6687;47.790;7.322;2022-12-07T18:22:04;2.28;;;2.15;;
13240;SDS011;6687;47.790;7.322;2022-12-07T18:24:31;2.80;;;1.48;;
13240;SDS011;6687;47.790;7.322;2022-12-07T18:26:58;1.60;;;1.42;;
13240;SDS011;6687;47.790;7.322;2022-12-07T18:29:25;1.25;;;1.20;;
13240;SDS011;6687;47.790;7.322;2022-12-07T18:31:51;2.65;;;2.03;;
13240;SDS011;6687;47.790;7.322;2022-12-07T18:34:19;5.07;;;3.10;;
13240;SDS011;6687;47.790;7.322;2022-12-07T18:36:47;2.47;;;1.85;;
13240;SDS011;6687;47.790;7.322;2022-12-07T18:39:15;1.58;;;1.48;;
13240;SDS011;6687;47.790;7.322;2022-12-07T18:41:43;3.80;;;2.13;;
13240;SDS011;6687;47.790;7.322;2022-12-07T18:44:11;2.78;;;1.70;;
13240;SDS011;6687;47.790;7.322;2022-12-07T18:46:38;1.02;;;0.93;;
13240;SDS011;6687;47.790;7.322;2022-12-07T18:49:06;0.95;;;0.77;;
13240;SDS011;6687;47.790;7.322;2022-12-07T18:51:36;0.93;;;0.93;;
13240;SDS011;6687;47.790;7.322;2022-12-07T18:54:03;0.63;;;0.63;;
13240;SDS011;6687;47.790;7.322;2022-12-07T18:56:30;1.92;;;1.30;;
13240;SDS011;6687;47.790;7.322;2022-12-07T18:58:57;0.95;;;0.95;;
13240;SDS011;6687;47.790;7.322;2022-12-07T19:01:43;1.15;;;1.15;;
13240;SDS011;6687;47.790;7.322;2022-12-07T19:04:11;1.20;;;1.10;;
13240;SDS011;6687;47.790;7.322;2022-12-07T19:06:41;1.33;;;0.63;;
13240;SDS011;6687;47.790;7.322;2022-12-07T19:09:08;0.80;;;0.80;;
13240;SDS011;6687;47.790;7.322;2022-12-07T19:11:35;1.30;;;1.20;;
13240;SDS011;6687;47.790;7.322;2022-12-07T19:14:15;1.55;;;1.13;;
13240;SDS011;6687;47.790;7.322;2022-12-07T19:16:44;2.95;;;1.70;;
13240;SDS011;6687;47.790;7.322;2022-12-07T19:19:13;2.00;;;1.50;;
13240;SDS011;6687;47.790;7.322;2022-12-07T19:21:42;1.73;;;1.50;;
13240;SDS011;6687;47.790;7.322;2022-12-07T19:24:09;2.65;;;1.98;;
13240;SDS011;6687;47.790;7.322;2022-12-07T19:26:36;1.50;;;1.40;;
13240;SDS011;6687;47.790;7.322;2022-12-07T19:29:02;1.05;;;1.05;;
13240;SDS011;6687;47.790;7.322;2022-12-07T19:31:29;1.75;;;1.27;;
13240;SDS011;6687;47.790;7.322;2022-12-07T19:33:56;0.80;;;0.80;;
13240;SDS011;6687;47.790;7.322;2022-12-07T19:36:23;0.60;;;0.60;;
13240;SDS011;6687;47.790;7.322;2022-12-07T19:38:51;2.17;;;1.00;;
13240;SDS011;6687;47.790;7.322;2022-12-07T19:41:18;2.00;;;1.65;;
13240;SDS011;6687;47.790;7.322;2022-12-07T19:44:00;1.45;;;1.35;;
13240;SDS011;6687;47.790;7.322;2022-12-07T19:46:28;3.42;;;1.98;;
13240;SDS011;6687;47.790;7.322;2022-12-07T19:48:55;1.33;;;1.23;;
13240;SDS011;6687;47.790;7.322;2022-12-07T19:51:22;1.65;;;1.55;;
13240;SDS011;6687;47.790;7.322;2022-12-07T19:53:50;4.25;;;1.90;;
13240;SDS011;6687;47.790;7.322;2022-12-07T19:56:18;7.00;;;3.60;;
13240;SDS011;6687;47.790;7.322;2022-12-07T19:58:46;2.92;;;2.58;;
13240;SDS011;6687;47.790;7.322;2022-12-07T20:01:14;2.42;;;1.95;;
13240;SDS011;6687;47.790;7.322;2022-12-07T20:03:41;1.45;;;1.35;;
13240;SDS011;6687;47.790;7.322;2022-12-07T20:06:08;3.03;;;1.92;;
13240;SDS011;6687;47.790;7.322;2022-12-07T20:08:36;2.33;;;2.13;;
13240;SDS011;6687;47.790;7.322;2022-12-07T20:11:05;1.00;;;0.90;;
13240;SDS011;6687;47.790;7.322;2022-12-07T20:13:45;2.22;;;1.58;;
13240;SDS011;6687;47.790;7.322;2022-12-07T20:16:12;1.58;;;1.17;;
13240;SDS011;6687;47.790;7.322;2022-12-07T20:18:39;1.05;;;1.00;;
13240;SDS011;6687;47.790;7.322;2022-12-07T20:21:06;2.58;;;1.48;;
13240;SDS011;6687;47.790;7.322;2022-12-07T20:23:32;1.63;;;1.33;;
13240;SDS011;6687;47.790;7.322;2022-12-07T20:26:00;1.63;;;1.13;;
13240;SDS011;6687;47.790;7.322;2022-12-07T20:28:29;1.67;;;1.40;;
13240;SDS011;6687;47.790;7.322;2022-12-07T20:30:56;0.90;;;0.80;;
13240;SDS011;6687;47.790;7.322;2022-12-07T20:33:23;1.00;;;1.00;;
13240;SDS011;6687;47.790;7.322;2022-12-07T20:35:49;3.03;;;2.00;;
13240;SDS011;6687;47.790;7.322;2022-12-07T20:38:16;2.10;;;2.00;;
13240;SDS011;6687;47.790;7.322;2022-12-07T20:40:44;2.08;;;1.88;;
13240;SDS011;6687;47.790;7.322;2022-12-07T20:43:12;1.70;;;1.60;;
13240;SDS011;6687;47.790;7.322;2022-12-07T20:45:44;2.08;;;1.88;;
13240;SDS011;6687;47.790;7.322;2022-12-07T20:48:11;2.35;;;2.15;;
13240;SDS011;6687;47.790;7.322;2022-12-07T20:50:38;2.45;;;2.20;;
13240;SDS011;6687;47.790;7.322;2022-12-07T20:53:05;3.90;;;2.47;;
13240;SDS011;6687;47.790;7.322;2022-12-07T20:55:32;2.00;;;1.90;;
13240;SDS011;6687;47.790;7.322;2022-12-07T20:57:59;2.67;;;2.05;;
13240;SDS011;6687;47.790;7.322;2022-12-07T21:00:26;2.10;;;1.98;;
13240;SDS011;6687;47.790;7.322;2022-12-07T21:02:54;8.07;;;4.72;;
13240;SDS011;6687;47.790;7.322;2022-12-07T21:05:22;6.13;;;4.45;;
13240;SDS011;6687;47.790;7.322;2022-12-07T21:07:48;4.13;;;2.53;;
13240;SDS011;6687;47.790;7.322;2022-12-07T21:10:15;3.45;;;2.45;;
13240;SDS011;6687;47.790;7.322;2022-12-07T21:12:43;1.67;;;1.58;;
13240;SDS011;6687;47.790;7.322;2022-12-07T21:15:09;2.00;;;1.52;;
13240;SDS011;6687;47.790;7.322;2022-12-07T21:17:36;1.50;;;1.40;;
13240;SDS011;6687;47.790;7.322;2022-12-07T21:20:05;2.90;;;1.02;;
13240;SDS011;6687;47.790;7.322;2022-12-07T21:22:33;1.42;;;1.33;;
13240;SDS011;6687;47.790;7.322;2022-12-07T21:25:00;1.45;;;1.30;;
13240;SDS011;6687;47.790;7.322;2022-12-07T21:27:26;1.10;;;1.02;;
13240;SDS011;6687;47.790;7.322;2022-12-07T21:29:53;1.85;;;1.30;;
13240;SDS011;6687;47.790;7.322;2022-12-07T21:32:20;1.27;;;1.17;;
13240;SDS011;6687;47.790;7.322;2022-12-07T21:34:46;1.15;;;1.02;;
13240;SDS011;6687;47.790;7.322;2022-12-07T21:37:15;0.95;;;0.95;;
13240;SDS011;6687;47.790;7.322;2022-12-07T21:39:41;1.20;;;1.10;;
13240;SDS011;6687;47.790;7.322;2022-12-07T21:42:08;0.80;;;0.57;;
13240;SDS011;6687;47.790;7.322;2022-12-07T21:44:35;0.82;;;0.82;;
13240;SDS011;6687;47.790;7.322;2022-12-07T21:47:02;2.58;;;1.48;;
13240;SDS011;6687;47.790;7.322;2022-12-07T21:49:29;0.90;;;0.90;;
13240;SDS011;6687;47.790;7.322;2022-12-07T21:51:59;1.40;;;1.10;;
13240;SDS011;6687;47.790;7.322;2022-12-07T21:54:27;1.10;;;0.70;;
13240;SDS011;6687;47.790;7.322;2022-12-07T21:56:54;0.70;;;0.70;;
13240;SDS011;6687;47.790;7.322;2022-12-07T21:59:21;1.65;;;0.88;;
13240;SDS011;6687;47.790;7.322;2022-12-07T22:01:48;0.70;;;0.70;;
13240;SDS011;6687;47.790;7.322;2022-12-07T22:04:16;0.52;;;0.52;;
13240;SDS011;6687;47.790;7.322;2022-12-07T22:06:45;0.82;;;0.82;;